Time;durP1;ratioP1;P1;durP2;ratioP2;P2;SDS_P1;SDS_P2;PMS_P1;PMS_P2;Temp;Humidity;BMP_temperature;BMP_pressure;BME280_temperature;BME280_humidity;BME280_pressure;Samples;Min_cycle;Max_cycle;Signal;HPM_P1;HPM_P2
2022/05/22 00:02:19;;;;;;;7.78;3.75;;;11.30;99.90;;;;;;7392508;19;20010;-64
2022/05/22 00:04:48;;;;;;;12.13;4.15;;;10.80;99.90;;;;;;7392712;19;20481;-64
2022/05/22 00:07:17;;;;;;;10.13;4.55;;;11.20;99.90;;;;;;7392043;19;20015;-64
2022/05/22 00:09:49;;;;;;;11.63;4.10;;;11.10;99.90;;;;;;7396098;19;20027;-64
2022/05/22 00:12:18;;;;;;;9.38;4.85;;;11.10;99.90;;;;;;7392395;19;20030;-64
2022/05/22 00:14:47;;;;;;;12.95;4.72;;;11.00;99.90;;;;;;7391759;19;20038;-63
2022/05/22 00:17:16;;;;;;;9.70;4.22;;;;;;;;;;7390994;19;20018;-64
2022/05/22 00:19:45;;;;;;;9.88;4.22;;;11.10;99.90;;;;;;7392161;19;20017;-64
2022/05/22 00:22:14;;;;;;;7.72;3.90;;;11.10;99.90;;;;;;7392648;19;20015;-64
2022/05/22 00:24:43;;;;;;;10.25;4.35;;;;;;;;;;7392611;19;20017;-64
2022/05/22 00:27:15;;;;;;;13.93;4.38;;;11.30;99.90;;;;;;7391937;19;20014;-64
2022/05/22 00:29:44;;;;;;;10.00;4.60;;;10.80;99.90;;;;;;7391918;19;20015;-64
2022/05/22 00:32:13;;;;;;;12.40;4.38;;;11.30;99.90;;;;;;7402229;19;20125;-64
2022/05/22 00:34:42;;;;;;;11.15;4.68;;;;;;;;;;7397599;19;20014;-64
2022/05/22 00:37:12;;;;;;;9.43;4.30;;;11.20;99.90;;;;;;7399135;19;20541;-64
2022/05/22 00:39:41;;;;;;;9.98;4.65;;;10.90;99.90;;;;;;7400482;19;20094;-64
2022/05/22 00:42:21;;;;;;;9.75;4.43;;;10.90;99.90;;;;;;7400294;19;20074;-64
2022/05/22 00:44:50;;;;;;;10.85;3.97;;;11.10;99.90;;;;;;7399482;19;20010;-64
2022/05/22 00:47:19;;;;;;;8.02;4.22;;;10.80;99.90;;;;;;7399234;19;20077;-64
2022/05/22 00:49:49;;;;;;;9.93;4.10;;;11.00;99.90;;;;;;7398672;19;20014;-64
2022/05/22 00:52:23;;;;;;;8.23;3.78;;;10.90;99.90;;;;;;7399107;19;20014;-64
2022/05/22 00:54:57;;;;;;;10.32;3.75;;;10.70;99.90;;;;;;7398564;19;20026;-64
2022/05/22 00:57:32;;;;;;;7.65;3.70;;;10.40;99.90;;;;;;7398685;19;20549;-65
2022/05/22 01:00:04;;;;;;;7.65;4.00;;;10.60;99.90;;;;;;7398919;19;20015;-64
2022/05/22 01:03:26;;;;;;;7.68;4.40;;;10.50;99.90;;;;;;7400293;19;20020;-64
2022/05/22 01:05:23;;;;;;;6.82;3.97;;;10.90;99.90;;;;;;7400692;19;20018;-64
2022/05/22 01:07:52;;;;;;;9.45;4.28;;;10.50;99.90;;;;;;7398956;19;20073;-64
2022/05/22 01:10:23;;;;;;;7.30;3.95;;;10.90;99.90;;;;;;7398077;19;20345;-64
2022/05/22 01:12:54;;;;;;;8.07;4.40;;;10.50;99.90;;;;;;7399570;19;20015;-64
2022/05/22 01:15:23;;;;;;;8.77;4.32;;;10.50;99.90;;;;;;7396048;19;20011;-64
2022/05/22 01:17:53;;;;;;;11.68;4.60;;;10.40;99.90;;;;;;7396302;19;20018;-64
2022/05/22 01:20:22;;;;;;;8.85;4.30;;;10.50;99.90;;;;;;7397958;19;20014;-64
2022/05/22 01:22:54;;;;;;;8.55;4.18;;;10.20;99.90;;;;;;7401979;19;20010;-64
2022/05/22 01:25:23;;;;;;;8.93;4.50;;;10.80;99.90;;;;;;7400331;19;20041;-64
2022/05/22 01:27:53;;;;;;;9.98;5.07;;;10.30;99.90;;;;;;7397401;19;20081;-64
2022/05/22 01:30:24;;;;;;;11.63;5.20;;;10.30;99.90;;;;;;7397419;19;20015;-64
2022/05/22 01:32:53;;;;;;;16.27;5.07;;;10.30;99.90;;;;;;7397814;19;20070;-64
2022/05/22 01:35:25;;;;;;;10.52;4.82;;;10.30;99.90;;;;;;7395715;19;20017;-64
2022/05/22 01:37:57;;;;;;;10.07;5.03;;;10.10;99.90;;;;;;7395258;19;20658;-64
2022/05/22 01:40:26;;;;;;;10.85;4.60;;;10.30;99.90;;;;;;7401163;19;20006;-64
2022/05/22 01:42:55;;;;;;;8.82;4.60;;;10.70;99.90;;;;;;7395866;19;20025;-64
2022/05/22 01:45:27;;;;;;;10.38;4.72;;;10.30;99.90;;;;;;7397509;19;20094;-64
2022/05/22 01:47:56;;;;;;;8.93;4.60;;;10.30;99.90;;;;;;7396003;19;20021;-65
2022/05/22 01:50:25;;;;;;;12.32;5.85;;;9.90;99.90;;;;;;7401485;19;20013;-64
2022/05/22 01:52:57;;;;;;;13.68;5.80;;;10.30;99.90;;;;;;7397216;19;20007;-64
2022/05/22 01:55:27;;;;;;;10.27;5.47;;;9.90;99.90;;;;;;7394475;19;20015;-62
2022/05/22 01:57:56;;;;;;;11.15;6.30;;;;;;;;;;7396261;19;20478;-62
2022/05/22 02:00:26;;;;;;;13.90;6.03;;;10.70;99.90;;;;;;7396599;19;20077;-64
2022/05/22 02:02:57;;;;;;;12.60;5.72;;;10.10;99.90;;;;;;7397438;19;20015;-64
2022/05/22 02:05:26;;;;;;;10.82;5.57;;;10.10;99.90;;;;;;7396366;19;20046;-64
2022/05/22 02:10:40;;;;;;;10.40;5.55;;;10.40;99.90;;;;;;7398533;19;20386;-64
2022/05/22 02:13:10;;;;;;;13.30;6.00;;;10.00;99.90;;;;;;7398631;19;20342;-64
2022/05/22 02:15:39;;;;;;;11.48;5.82;;;10.10;99.90;;;;;;7394799;19;20042;-64
2022/05/22 02:18:09;;;;;;;13.00;6.47;;;9.90;99.90;;;;;;7394639;19;20018;-64
2022/05/22 02:20:38;;;;;;;13.15;5.75;;;9.70;99.90;;;;;;7395855;19;20481;-64
2022/05/22 02:23:10;;;;;;;11.93;5.97;;;10.10;99.90;;;;;;7397426;19;20014;-64
2022/05/22 02:25:43;;;;;;;11.35;5.63;;;10.30;99.90;;;;;;7395440;19;20015;-64
2022/05/22 02:28:14;;;;;;;11.75;5.90;;;10.10;99.90;;;;;;7395431;19;20019;-64
2022/05/22 02:30:45;;;;;;;7.22;4.82;;;10.20;99.90;;;;;;7398779;19;20046;-64
2022/05/22 02:33:14;;;;;;;10.02;5.25;;;9.80;99.90;;;;;;7395415;19;20014;-64
2022/05/22 02:35:43;;;;;;;12.35;5.57;;;10.00;99.90;;;;;;7393760;19;20374;-64
2022/05/22 02:38:15;;;;;;;12.70;5.82;;;10.00;99.90;;;;;;7397316;19;20011;-64
2022/05/22 02:40:44;;;;;;;13.73;5.63;;;9.90;99.90;;;;;;7397611;19;20018;-64
2022/05/22 02:43:12;;;;;;;11.45;5.63;;;9.90;99.90;;;;;;7394971;19;20011;-64
2022/05/22 02:45:42;;;;;;;11.13;6.22;;;9.90;99.90;;;;;;7394741;19;20492;-64
2022/05/22 02:48:12;;;;;;;14.57;6.28;;;9.60;99.90;;;;;;7399045;19;20042;-64
2022/05/22 02:50:41;;;;;;;13.25;6.32;;;9.50;99.90;;;;;;7394953;19;20010;-64
2022/05/22 02:53:13;;;;;;;11.50;5.75;;;9.70;99.90;;;;;;7395073;19;20015;-64
2022/05/22 02:55:43;;;;;;;11.43;6.00;;;9.90;99.90;;;;;;7390496;19;20010;-64
2022/05/22 02:58:13;;;;;;;11.10;5.90;;;9.80;99.90;;;;;;7394190;19;20053;-64
2022/05/22 03:00:42;;;;;;;9.70;5.80;;;10.10;99.90;;;;;;7394625;19;20038;-64
2022/05/22 03:03:12;;;;;;;11.75;5.88;;;9.50;99.90;;;;;;7394682;19;20357;-64
2022/05/22 03:08:25;;;;;;;10.88;5.93;;;9.70;99.90;;;;;;7394265;19;20077;-64
2022/05/22 03:10:54;;;;;;;11.80;5.60;;;10.10;99.90;;;;;;7396621;19;20372;-64
2022/05/22 03:13:23;;;;;;;12.30;6.38;;;9.70;99.90;;;;;;7394284;19;20018;-64
2022/05/22 03:15:52;;;;;;;10.52;6.10;;;10.10;99.90;;;;;;7393247;19;20501;-64
2022/05/22 03:18:22;;;;;;;14.00;6.05;;;9.60;99.90;;;;;;7392044;19;20014;-64
2022/05/22 03:20:51;;;;;;;12.52;6.10;;;9.60;99.90;;;;;;7395533;19;20521;-64
2022/05/22 03:23:20;;;;;;;10.68;5.85;;;9.80;99.90;;;;;;7396913;19;20391;-64
2022/05/22 03:25:52;;;;;;;11.18;5.13;;;9.80;99.90;;;;;;7393527;19;20038;-64
2022/05/22 03:28:23;;;;;;;11.82;5.40;;;;;;;;;;7393780;19;20011;-64
2022/05/22 03:30:52;;;;;;;10.88;5.53;;;9.50;99.90;;;;;;7393661;19;20022;-64
2022/05/22 03:33:21;;;;;;;16.10;5.93;;;;;;;;;;7393625;19;20465;-64
2022/05/22 03:35:50;;;;;;;11.48;4.90;;;9.50;99.90;;;;;;7394865;19;20061;-64
2022/05/22 03:38:19;;;;;;;10.93;4.45;;;9.50;99.90;;;;;;7396169;19;20015;-64
2022/05/22 03:40:52;;;;;;;9.73;4.93;;;9.60;99.90;;;;;;7394601;19;20357;-64
2022/05/22 03:43:21;;;;;;;11.45;4.60;;;9.50;99.90;;;;;;7397917;19;20018;-64
2022/05/22 03:45:50;;;;;;;10.55;5.00;;;;;;;;;;7393649;19;20007;-64
2022/05/22 03:48:19;;;;;;;11.13;4.70;;;9.50;99.90;;;;;;7393358;19;20409;-64
2022/05/22 03:50:50;;;;;;;10.35;5.03;;;9.50;99.90;;;;;;7392850;19;20027;-65
2022/05/22 03:53:19;;;;;;;10.10;4.72;;;9.40;99.90;;;;;;7393128;19;20343;-65
2022/05/22 03:55:48;;;;;;;10.45;4.68;;;9.50;99.90;;;;;;7393807;19;20014;-64
2022/05/22 03:58:21;;;;;;;9.32;4.82;;;9.10;99.90;;;;;;7392625;19;20014;-64
2022/05/22 04:00:50;;;;;;;10.52;5.18;;;;;;;;;;7392834;19;20030;-64
2022/05/22 04:03:23;;;;;;;8.98;4.65;;;9.10;99.90;;;;;;7392971;19;20015;-64
2022/05/22 04:05:52;;;;;;;8.18;4.93;;;9.30;99.90;;;;;;7395327;19;20362;-64
2022/05/22 04:08:21;;;;;;;9.75;4.93;;;9.40;99.90;;;;;;7401038;19;20370;-64
2022/05/22 04:10:51;;;;;;;9.45;4.53;;;9.50;99.90;;;;;;7401232;19;20366;-64
2022/05/22 04:13:22;;;;;;;8.27;4.65;;;9.40;99.90;;;;;;7404567;19;20432;-64
2022/05/22 04:15:51;;;;;;;9.40;5.10;;;9.40;99.90;;;;;;7401978;19;20014;-64
2022/05/22 04:18:20;;;;;;;8.57;4.78;;;9.40;99.90;;;;;;7397448;19;20077;-64
2022/05/22 04:20:50;;;;;;;5.63;4.22;;;9.50;99.90;;;;;;7399907;19;20088;-64
2022/05/22 04:26:02;;;;;;;6.22;4.63;;;9.50;99.90;;;;;;7399179;19;20018;-64
2022/05/22 04:28:34;;;;;;;7.07;5.10;;;9.40;99.90;;;;;;7400091;19;20011;-64
2022/05/22 04:31:04;;;;;;;7.22;5.50;;;9.50;99.90;;;;;;7400057;19;20082;-64
2022/05/22 04:33:34;;;;;;;8.25;6.18;;;9.40;99.90;;;;;;7402841;19;20014;-64
2022/05/22 04:36:04;;;;;;;9.00;6.65;;;9.60;99.90;;;;;;7398331;19;20078;-64
2022/05/22 04:38:33;;;;;;;9.23;7.30;;;9.50;99.90;;;;;;7399291;19;20018;-64
2022/05/22 04:41:04;;;;;;;8.90;7.13;;;9.40;99.90;;;;;;7398992;19;20017;-64
2022/05/22 04:43:35;;;;;;;9.10;7.00;;;9.90;99.90;;;;;;7399024;19;20400;-64
2022/05/22 04:46:09;;;;;;;11.27;7.53;;;9.50;99.90;;;;;;7401174;19;20006;-64
2022/05/22 04:48:38;;;;;;;12.95;7.85;;;9.60;99.90;;;;;;7399589;19;20021;-64
2022/05/22 04:51:07;;;;;;;14.68;7.80;;;9.80;99.90;;;;;;7399093;19;20038;-64
2022/05/22 04:53:36;;;;;;;18.83;8.27;;;9.50;99.90;;;;;;7399166;19;20007;-64
2022/05/22 04:56:06;;;;;;;13.45;7.05;;;9.30;99.90;;;;;;7398395;19;20014;-64
2022/05/22 04:58:38;;;;;;;17.33;7.30;;;9.50;99.90;;;;;;7399675;19;20022;-64
2022/05/22 05:01:08;;;;;;;10.60;6.93;;;9.40;99.90;;;;;;7399101;19;20017;-64
2022/05/22 05:03:42;;;;;;;13.30;6.65;;;9.40;99.90;;;;;;7402265;19;20011;-64
2022/05/22 05:06:11;;;;;;;14.10;7.25;;;9.30;99.90;;;;;;7398203;19;20106;-64
2022/05/22 05:08:40;;;;;;;14.63;7.80;;;9.40;99.90;;;;;;7398657;19;20014;-64
2022/05/22 05:11:13;;;;;;;13.05;7.32;;;9.40;99.90;;;;;;7397911;19;20018;-64
2022/05/22 05:13:44;;;;;;;14.57;7.40;;;9.40;99.90;;;;;;7400382;19;20086;-64
2022/05/22 05:16:15;;;;;;;18.23;7.78;;;9.90;99.90;;;;;;7396796;19;20013;-64
2022/05/22 05:18:44;;;;;;;13.45;7.10;;;9.60;99.90;;;;;;7399010;19;20018;-64
2022/05/22 05:21:16;;;;;;;13.32;7.20;;;9.60;99.90;;;;;;7402299;19;20028;-65
2022/05/22 05:23:45;;;;;;;13.85;7.22;;;9.70;99.90;;;;;;7398044;19;20007;-64
2022/05/22 05:26:14;;;;;;;14.60;6.93;;;;;;;;;;7397742;19;20014;-64
2022/05/22 05:28:46;;;;;;;12.90;7.15;;;9.50;99.90;;;;;;7398682;19;20410;-64
2022/05/22 05:31:15;;;;;;;16.63;7.13;;;9.80;99.90;;;;;;7400482;19;20370;-64
2022/05/22 05:33:44;;;;;;;19.88;8.18;;;9.90;99.90;;;;;;7395531;19;20023;-66
2022/05/22 05:36:14;;;;;;;13.27;7.18;;;10.00;99.90;;;;;;7396359;19;20007;-64
2022/05/22 05:38:43;;;;;;;13.80;7.53;;;9.90;99.90;;;;;;7397243;19;20517;-64
2022/05/22 05:41:12;;;;;;;18.55;7.95;;;10.00;99.90;;;;;;7397238;19;20354;-64
2022/05/22 05:43:41;;;;;;;13.15;6.95;;;9.90;99.90;;;;;;7399358;19;20018;-64
2022/05/22 05:46:14;;;;;;;16.50;6.90;;;9.80;99.90;;;;;;7398973;19;20086;-64
2022/05/22 05:48:43;;;;;;;14.48;6.90;;;10.10;99.90;;;;;;7396978;19;20015;-64
2022/05/22 05:51:15;;;;;;;16.08;7.05;;;10.10;99.90;;;;;;7396754;19;20555;-64
2022/05/22 05:53:44;;;;;;;15.00;6.45;;;10.20;99.90;;;;;;7399786;19;20343;-64
2022/05/22 05:56:13;;;;;;;15.40;6.20;;;10.20;99.90;;;;;;7394483;19;20691;-64
2022/05/22 05:58:42;;;;;;;15.35;6.45;;;10.30;99.90;;;;;;7396484;19;20010;-64
2022/05/22 06:01:16;;;;;;;12.93;6.43;;;10.40;99.90;;;;;;7399403;19;20014;-64
2022/05/22 06:03:46;;;;;;;15.35;7.28;;;10.40;99.90;;;;;;7396321;19;20427;-64
2022/05/22 06:06:17;;;;;;;18.58;7.07;;;10.40;99.90;;;;;;7396198;19;20010;-64
2022/05/22 06:08:46;;;;;;;19.73;6.82;;;10.60;99.90;;;;;;7396992;19;20070;-64
2022/05/22 06:11:15;;;;;;;13.68;5.88;;;10.80;99.90;;;;;;7398885;19;20091;-64
2022/05/22 06:13:44;;;;;;;17.35;6.65;;;10.60;99.90;;;;;;7395976;19;20014;-64
2022/05/22 06:16:16;;;;;;;14.90;6.45;;;10.40;99.90;;;;;;7395705;19;20011;-64
2022/05/22 06:18:45;;;;;;;14.32;6.70;;;10.70;99.90;;;;;;7395883;19;20014;-64
2022/05/22 06:21:17;;;;;;;14.95;7.10;;;10.80;99.90;;;;;;7396337;19;20011;-64
2022/05/22 06:23:46;;;;;;;14.05;6.63;;;11.10;99.90;;;;;;7395226;19;20010;-64
2022/05/22 06:26:18;;;;;;;15.65;6.63;;;10.90;99.90;;;;;;7394000;19;20027;-64
2022/05/22 06:28:47;;;;;;;14.30;6.65;;;11.20;99.90;;;;;;7398452;19;20661;-64
2022/05/22 06:31:18;;;;;;;16.70;6.97;;;11.00;99.90;;;;;;7395543;19;20500;-64
2022/05/22 06:33:47;;;;;;;19.33;6.00;;;11.00;99.90;;;;;;7395398;19;20078;-63
2022/05/22 06:36:18;;;;;;;15.32;6.40;;;11.20;99.90;;;;;;7395045;19;20077;-63
2022/05/22 06:41:29;;;;;;;14.40;6.65;;;11.20;99.90;;;;;;7395439;19;20506;-63
2022/05/22 06:43:58;;;;;;;14.63;7.35;;;11.30;99.90;;;;;;7397653;19;20019;-63
2022/05/22 06:46:33;;;;;;;16.02;6.88;;;11.40;99.90;;;;;;7395357;19;20482;-63
2022/05/22 06:49:02;;;;;;;17.40;7.22;;;11.20;99.90;;;;;;7394897;19;20014;-63
2022/05/22 06:51:31;;;;;;;18.67;7.20;;;11.40;99.90;;;;;;7394845;19;20007;-63
2022/05/22 06:54:00;;;;;;;18.77;6.78;;;11.30;99.90;;;;;;7394818;19;20503;-63
2022/05/22 06:56:29;;;;;;;18.80;6.38;;;11.30;99.90;;;;;;7391599;19;20045;-62
2022/05/22 06:58:58;;;;;;;17.00;6.45;;;11.30;99.90;;;;;;7396833;19;20010;-63
2022/05/22 07:01:27;;;;;;;14.70;6.90;;;11.30;99.90;;;;;;7395442;19;20123;-63
2022/05/22 07:03:59;;;;;;;17.08;5.60;;;11.40;99.90;;;;;;7398129;19;20015;-63
2022/05/22 07:06:28;;;;;;;15.48;5.07;;;11.50;99.90;;;;;;7395055;19;20018;-63
2022/05/22 07:08:57;;;;;;;13.75;5.10;;;;;;;;;;7395157;19;20078;-63
2022/05/22 07:11:41;;;;;;;16.70;6.40;;;11.50;99.90;;;;;;7397088;19;20498;-63
2022/05/22 07:14:13;;;;;;;13.90;5.93;;;11.60;99.90;;;;;;7393119;19;20023;-63
2022/05/22 07:16:43;;;;;;;13.23;5.78;;;11.60;99.90;;;;;;7393156;19;20053;-63
2022/05/22 07:19:15;;;;;;;18.10;6.40;;;11.70;99.90;;;;;;7396729;19;20355;-63
2022/05/22 07:21:45;;;;;;;12.52;6.22;;;11.70;99.90;;;;;;7394622;19;20078;-63
2022/05/22 07:24:14;;;;;;;15.45;5.72;;;11.70;99.90;;;;;;7396923;19;20027;-63
2022/05/22 07:26:43;;;;;;;15.98;5.97;;;11.70;99.90;;;;;;7394661;19;20022;-63
2022/05/22 07:29:12;;;;;;;11.63;4.90;;;11.80;99.90;;;;;;7397885;19;20011;-63
2022/05/22 07:31:43;;;;;;;11.50;4.93;;;11.80;99.90;;;;;;7393499;19;20021;-63
2022/05/22 07:34:14;;;;;;;12.57;5.47;;;11.90;99.90;;;;;;7392659;19;20019;-63
2022/05/22 07:36:43;;;;;;;14.32;5.50;;;11.90;99.90;;;;;;7394854;19;20014;-63
2022/05/22 07:39:12;;;;;;;12.77;5.43;;;12.20;99.90;;;;;;7394102;19;20014;-63
2022/05/22 07:41:41;;;;;;;14.32;5.50;;;12.30;99.90;;;;;;7391712;19;20353;-63
2022/05/22 07:44:10;;;;;;;13.10;5.50;;;12.10;99.90;;;;;;7393574;19;20014;-63
2022/05/22 07:46:39;;;;;;;17.92;5.68;;;12.20;99.90;;;;;;7394596;19;20018;-63
2022/05/22 07:49:08;;;;;;;13.25;5.18;;;12.10;99.90;;;;;;7393168;19;20027;-63
2022/05/22 07:51:41;;;;;;;8.75;4.55;;;12.20;99.90;;;;;;7397298;19;20658;-63
2022/05/22 07:54:09;;;;;;;14.27;5.90;;;12.30;99.90;;;;;;7396451;19;20349;-63
2022/05/22 07:56:38;;;;;;;11.10;5.03;;;12.60;99.90;;;;;;7390664;19;20030;-63
2022/05/22 07:59:07;;;;;;;15.35;5.38;;;12.60;99.90;;;;;;7396174;19;20027;-63
2022/05/22 08:01:37;;;;;;;9.63;4.40;;;12.70;99.90;;;;;;7392160;19;20565;-63
2022/05/22 08:04:06;;;;;;;10.43;4.63;;;12.80;99.90;;;;;;7392450;19;20019;-63
2022/05/22 08:06:35;;;;;;;13.27;4.75;;;12.50;99.90;;;;;;7392546;19;20014;-63
2022/05/22 08:09:07;;;;;;;14.95;5.18;;;12.60;99.90;;;;;;7392536;19;20024;-63
2022/05/22 08:11:36;;;;;;;11.38;5.05;;;12.50;99.90;;;;;;7395679;19;20015;-63
2022/05/22 08:14:05;;;;;;;13.93;5.15;;;12.80;99.90;;;;;;7392537;19;20490;-63
2022/05/22 08:16:35;;;;;;;13.70;5.60;;;12.70;99.90;;;;;;7391401;19;20342;-63
2022/05/22 08:19:04;;;;;;;11.80;4.78;;;12.80;99.90;;;;;;7392094;19;20013;-63
2022/05/22 08:21:33;;;;;;;8.85;3.80;;;12.80;99.90;;;;;;7392462;19;20011;-63
2022/05/22 08:24:02;;;;;;;11.02;4.07;;;13.10;99.90;;;;;;7392152;19;20540;-63
2022/05/22 08:26:34;;;;;;;11.60;3.95;;;12.70;99.90;;;;;;7393218;19;20011;-63
2022/05/22 08:29:03;;;;;;;14.80;4.57;;;12.80;99.90;;;;;;7394772;19;20044;-63
2022/05/22 08:31:32;;;;;;;11.88;4.10;;;12.80;99.90;;;;;;7392292;19;20007;-63
2022/05/22 08:34:02;;;;;;;12.32;4.15;;;12.80;99.90;;;;;;7391780;19;20010;-63
2022/05/22 08:36:32;;;;;;;12.60;4.97;;;13.00;99.90;;;;;;7391064;19;20014;-63
2022/05/22 08:39:01;;;;;;;11.52;5.00;;;13.10;99.90;;;;;;7390852;19;20010;-63
2022/05/22 08:41:36;;;;;;;15.32;4.38;;;13.10;99.90;;;;;;7391638;19;20035;-63
2022/05/22 08:44:12;;;;;;;11.13;3.97;;;13.10;99.90;;;;;;7393383;19;20111;-63
2022/05/22 08:46:55;;;;;;;10.95;3.83;;;13.30;99.90;;;;;;7391577;19;20011;-63
2022/05/22 08:49:26;;;;;;;10.10;4.20;;;13.30;99.90;;;;;;7390038;19;20414;-63
2022/05/22 08:52:01;;;;;;;9.32;3.70;;;13.30;99.90;;;;;;7392135;19;20015;-63
2022/05/22 08:54:34;;;;;;;10.98;3.70;;;13.50;99.90;;;;;;7397942;19;20477;-64
2022/05/22 09:00:01;;;;;;;11.63;4.10;;;13.50;99.90;;;;;;7399979;19;20021;-63
2022/05/22 09:02:36;;;;;;;10.43;4.70;;;13.50;99.90;;;;;;7398222;19;20006;-63
2022/05/22 09:05:09;;;;;;;9.93;4.15;;;13.70;99.90;;;;;;7398564;19;20084;-63
2022/05/22 09:07:55;;;;;;;9.88;3.92;;;14.00;99.90;;;;;;7398900;19;20014;-63
2022/05/22 09:10:34;;;;;;;13.90;4.50;;;13.90;99.90;;;;;;7397887;19;20038;-63
2022/05/22 09:13:25;;;;;;;11.48;3.83;;;14.20;99.90;;;;;;7398037;19;20018;-63
2022/05/22 09:16:01;;;;;;;8.80;3.90;;;14.00;99.90;;;;;;7397968;19;20021;-63
2022/05/22 09:18:35;;;;;;;12.85;4.03;;;14.00;99.90;;;;;;7398392;19;20381;-64
2022/05/22 09:21:15;;;;;;;11.50;4.13;;;14.00;99.90;;;;;;7398307;19;20505;-63
2022/05/22 09:23:59;;;;;;;16.23;3.90;;;13.80;99.90;;;;;;7398841;19;20018;-63
2022/05/22 09:26:48;;;;;;;11.63;4.07;;;13.90;99.90;;;;;;7399220;19;20062;-62
2022/05/22 09:29:39;;;;;;;12.85;3.63;;;14.10;99.90;;;;;;7397269;19;20035;-63
2022/05/22 09:32:26;;;;;;;10.38;3.35;;;14.00;99.90;;;;;;7397651;19;20002;-63
2022/05/22 09:35:09;;;;;;;12.02;3.50;;;14.20;99.90;;;;;;7399719;19;20011;-63
2022/05/22 09:37:49;;;;;;;9.02;3.25;;;14.60;99.90;;;;;;7396758;19;20474;-63
2022/05/22 09:40:27;;;;;;;10.88;3.40;;;14.60;99.90;;;;;;7400633;19;20028;-63
2022/05/22 09:43:22;;;;;;;10.00;3.10;;;14.60;99.90;;;;;;7397139;19;20014;-63
2022/05/22 09:46:04;;;;;;;9.90;3.50;;;14.90;99.90;;;;;;7397174;19;20112;-63
2022/05/22 09:48:46;;;;;;;13.20;3.40;;;14.80;99.90;;;;;;7397001;19;20375;-63
2022/05/22 09:51:27;;;;;;;12.00;3.80;;;15.10;99.90;;;;;;7397393;19;20046;-63
2022/05/22 09:54:11;;;;;;;11.82;3.47;;;15.20;99.90;;;;;;7399395;19;20010;-63
2022/05/22 09:56:49;;;;;;;11.00;3.05;;;15.40;99.90;;;;;;7395915;19;20034;-63
2022/05/22 09:59:37;;;;;;;9.13;3.22;;;15.60;99.90;;;;;;7395991;19;20492;-63
2022/05/22 10:02:16;;;;;;;11.80;3.28;;;15.70;99.90;;;;;;7396801;19;20101;-63
2022/05/22 10:04:53;;;;;;;9.57;2.97;;;15.60;99.90;;;;;;7395579;19;20483;-63
2022/05/22 10:07:28;;;;;;;6.25;2.78;;;15.30;99.90;;;;;;7396618;19;20014;-63
2022/05/22 10:10:04;;;;;;;7.05;2.83;;;15.50;99.90;;;;;;7399381;19;20014;-63
2022/05/22 10:12:47;;;;;;;9.50;3.13;;;15.50;99.90;;;;;;7400037;19;20363;-63
2022/05/22 10:15:33;;;;;;;9.68;3.25;;;15.70;99.90;;;;;;7396377;19;20505;-63
2022/05/22 10:18:21;;;;;;;6.70;3.10;;;15.50;99.90;;;;;;7395848;19;20098;-63
2022/05/22 10:21:03;;;;;;;10.50;3.13;;;15.60;99.90;;;;;;7395945;19;20599;-63
2022/05/22 10:23:46;;;;;;;5.80;2.50;;;15.70;99.90;;;;;;7398490;19;20019;-63
2022/05/22 10:26:25;;;;;;;8.32;2.85;;;15.80;99.90;;;;;;7395975;19;20014;-63
2022/05/22 10:28:59;;;;;;;7.70;2.72;;;16.10;99.90;;;;;;7395633;19;20013;-63
2022/05/22 10:31:45;;;;;;;9.48;2.95;;;16.10;99.90;;;;;;7395867;19;20014;-63
2022/05/22 10:34:29;;;;;;;9.60;2.33;;;16.10;99.90;;;;;;7398017;19;20035;-63
2022/05/22 10:37:01;;;;;;;10.63;2.67;;;16.30;99.90;;;;;;7394899;19;20367;-63
2022/05/22 10:39:31;;;;;;;12.48;3.08;;;16.20;99.90;;;;;;7395138;19;20476;-63
2022/05/22 10:44:50;;;;;;;6.85;2.60;;;16.50;99.90;;;;;;7398931;19;20018;-63
2022/05/22 10:47:29;;;;;;;6.72;2.78;;;16.40;99.90;;;;;;7395261;19;20014;-63
2022/05/22 10:50:01;;;;;;;8.45;2.72;;;16.50;99.90;;;;;;7394832;19;20010;-63
2022/05/22 10:52:35;;;;;;;9.20;2.53;;;16.60;99.90;;;;;;7394945;19;20180;-63
2022/05/22 10:55:06;;;;;;;12.35;3.03;;;16.30;99.90;;;;;;7394733;19;20015;-64
2022/05/22 10:57:35;;;;;;;5.85;2.55;;;16.60;99.90;;;;;;7398527;19;20041;-64
2022/05/22 11:00:17;;;;;;;9.77;3.10;;;16.40;99.90;;;;;;7396055;19;20013;-64
2022/05/22 11:02:46;;;;;;;10.23;2.60;;;16.60;99.90;;;;;;7394497;19;20014;-64
2022/05/22 11:05:23;;;;;;;6.00;1.92;;;16.90;99.90;;;;;;7396995;19;20011;-63
2022/05/22 11:07:54;;;;;;;8.20;2.03;;;16.80;99.90;;;;;;7394206;19;20384;-64
2022/05/22 11:10:26;;;;;;;6.30;1.55;;;16.80;99.10;;;;;;7393844;19;20082;-64
2022/05/22 11:13:04;;;;;;;6.35;1.95;;;16.60;98.30;;;;;;7399166;19;20094;-63
2022/05/22 11:15:37;;;;;;;4.82;1.75;;;16.80;99.00;;;;;;7393920;19;20014;-64
2022/05/22 11:18:12;;;;;;;5.03;1.60;;;16.70;98.90;;;;;;7395274;19;20470;-63
2022/05/22 11:20:52;;;;;;;5.63;1.63;;;16.80;97.60;;;;;;7393991;19;20018;-64
2022/05/22 11:23:47;;;;;;;5.10;1.58;;;16.80;97.20;;;;;;7393995;19;20110;-63
2022/05/22 11:26:29;;;;;;;9.48;2.03;;;16.90;97.90;;;;;;7393819;19;20031;-64
2022/05/22 11:29:14;;;;;;;6.97;2.33;;;16.90;99.40;;;;;;7395945;19;20031;-64
2022/05/22 11:31:56;;;;;;;12.05;3.03;;;16.90;99.90;;;;;;7393685;19;20349;-63
2022/05/22 11:34:53;;;;;;;6.75;2.67;;;17.00;99.90;;;;;;7396299;19;20026;-64
2022/05/22 11:37:37;;;;;;;7.03;2.58;;;17.10;99.90;;;;;;7393348;19;20078;-64
2022/05/22 11:40:20;;;;;;;8.25;2.85;;;17.30;99.90;;;;;;7393401;19;20017;-64
2022/05/22 11:42:52;;;;;;;9.05;2.47;;;17.80;99.90;;;;;;7393491;19;20010;-64
2022/05/22 11:45:32;;;;;;;9.30;3.00;;;17.60;99.90;;;;;;7394605;19;20062;-64
2022/05/22 11:48:23;;;;;;;18.10;2.75;;;17.80;99.50;;;;;;7397933;19;20035;-64
2022/05/22 11:51:00;;;;;;;7.63;2.75;;;17.90;99.50;;;;;;7393236;19;20010;-64
2022/05/22 11:53:54;;;;;;;5.78;2.70;;;18.20;99.10;;;;;;7396295;19;20074;-64
2022/05/22 11:56:36;;;;;;;5.53;2.47;;;18.40;98.80;;;;;;7390086;19;20014;-64
2022/05/22 11:59:13;;;;;;;10.68;3.13;;;18.60;98.70;;;;;;7391333;19;20018;-64
2022/05/22 12:01:48;;;;;;;4.57;2.00;;;18.80;97.40;;;;;;7395026;19;20011;-64
2022/05/22 12:04:59;;;;;;;6.95;2.20;;;19.00;96.60;;;;;;7393082;19;20007;-64
2022/05/22 12:07:46;;;;;;;6.78;2.33;;;19.00;97.00;;;;;;7391823;19;20018;-64
2022/05/22 12:10:23;;;;;;;8.18;2.45;;;19.10;95.60;;;;;;7392254;19;20010;-64
2022/05/22 12:12:59;;;;;;;7.60;2.45;;;19.00;96.10;;;;;;7396799;19;20033;-64
2022/05/22 12:15:35;;;;;;;5.93;2.45;;;18.50;95.90;;;;;;7395726;19;20014;-64
2022/05/22 12:18:18;;;;;;;6.65;2.25;;;18.30;96.30;;;;;;7390593;19;20074;-64
2022/05/22 12:20:54;;;;;;;7.93;2.50;;;18.30;97.50;;;;;;7392075;19;20019;-64
2022/05/22 12:23:28;;;;;;;6.97;2.28;;;18.10;98.30;;;;;;7392854;19;20025;-64
2022/05/22 12:26:02;;;;;;;7.10;2.22;;;18.20;99.10;;;;;;7394525;19;20021;-64
2022/05/22 12:28:44;;;;;;;8.40;2.35;;;18.00;99.30;;;;;;7399215;19;20058;-64
2022/05/22 12:31:29;;;;;;;5.72;2.13;;;18.30;98.60;;;;;;7399569;19;20074;-64
2022/05/22 12:34:05;;;;;;;5.85;2.35;;;18.20;99.20;;;;;;7399389;19;20010;-64
2022/05/22 12:36:35;;;;;;;7.40;2.00;;;18.10;99.30;;;;;;7399532;19;20078;-64
2022/05/22 12:39:07;;;;;;;6.05;2.20;;;18.20;99.50;;;;;;7398669;19;20366;-64
2022/05/22 12:41:57;;;;;;;5.70;1.80;;;18.00;99.30;;;;;;7400242;19;20027;-64
2022/05/22 12:44:28;;;;;;;7.22;2.13;;;18.00;99.10;;;;;;7398788;19;20426;-64
2022/05/22 12:46:58;;;;;;;6.97;2.72;;;17.90;98.90;;;;;;7403432;19;20018;-65
2022/05/22 12:49:30;;;;;;;6.70;2.00;;;18.10;98.50;;;;;;7398794;19;20090;-64
2022/05/22 12:52:09;;;;;;;6.15;2.40;;;18.00;99.00;;;;;;7401568;19;20018;-64
2022/05/22 12:54:40;;;;;;;5.72;2.35;;;18.00;98.50;;;;;;7398301;19;20466;-64
2022/05/22 12:57:18;;;;;;;6.90;2.35;;;18.20;97.90;;;;;;7398483;19;20503;-64
2022/05/22 12:59:58;;;;;;;8.43;2.45;;;18.60;97.80;;;;;;7401923;19;20014;-64
2022/05/22 13:02:46;;;;;;;8.35;2.38;;;18.80;97.90;;;;;;7398938;19;20086;-66
2022/05/22 13:05:28;;;;;;;6.55;1.98;;;18.60;97.70;;;;;;7398426;19;20027;-65
2022/05/22 13:07:57;;;;;;;8.07;2.38;;;18.60;97.40;;;;;;7402324;19;20078;-65
2022/05/22 13:10:37;;;;;;;7.30;2.50;;;19.00;96.90;;;;;;7398640;19;20038;-64
2022/05/22 13:13:12;;;;;;;4.70;1.70;;;19.50;97.30;;;;;;7398635;19;20017;-65
2022/05/22 13:15:56;;;;;;;7.18;2.08;;;19.80;97.10;;;;;;7399394;19;20011;-63
2022/05/22 13:18:27;;;;;;;7.82;1.98;;;20.30;95.40;;;;;;7395872;19;20094;-65
2022/05/22 13:20:58;;;;;;;7.28;2.05;;;20.50;95.10;;;;;;7398440;19;20019;-64
2022/05/22 13:23:47;;;;;;;5.85;1.58;;;20.70;93.30;;;;;;7398089;19;20070;-64
2022/05/22 13:26:29;;;;;;;5.70;1.67;;;21.00;92.60;;;;;;7399838;19;20035;-65
2022/05/22 13:29:08;;;;;;;6.43;2.17;;;21.10;91.10;;;;;;7399626;19;20024;-64
2022/05/22 13:31:45;;;;;;;5.90;1.98;;;21.30;91.00;;;;;;7397747;19;20006;-65
2022/05/22 13:34:30;;;;;;;5.47;1.77;;;21.50;91.00;;;;;;7401432;19;20356;-64